EZY365 LDZA-EGKK
Flight info
| Callsign | EZY365 |
|---|---|
| Flight time | N/A |
| Altitude | 37000 |
| Route | PODET DCT ABTAN DCT SIMBA DCT MAMOR L610 UPALA Z744 COSJE T892 RIDSU Z114 ADENU L608 DENUT L610 TEBRA |
| Aircraft | A20N/M-SDE2E3FGHIRWXY/LB1 |
Departure
| Time | 2026-04-29 12:53 |
|---|---|
| Airport | Zagreb Franjo Tuđman International Airport (LDZA) |
Arrival
| Time | N/A |
|---|---|
| Airport | London Gatwick Airport (EGKK) |
| Time | Latitude | Longitude | Altitude | Speed | Heading |
|---|---|---|---|---|---|
| 2026-04-29 12:29 | 45.74127 | 16.07754 | 362 ft | 0 kts | 136° |
| 2026-04-29 12:40 | 45.74136 | 16.07742 | 363 ft | 0 kts | 154° |
| 2026-04-29 12:40 | 45.74140 | 16.07738 | 364 ft | 0 kts | 183° |
| 2026-04-29 12:40 | 45.74144 | 16.07738 | 364 ft | 1 kts | 203° |
| 2026-04-29 12:41 | 45.74145 | 16.07738 | 363 ft | 0 kts | 210° |
| 2026-04-29 12:41 | 45.74154 | 16.07750 | 361 ft | 0 kts | 263° |
| 2026-04-29 12:45 | 45.74153 | 16.07747 | 361 ft | 1 kts | 263° |
| 2026-04-29 12:45 | 45.74157 | 16.07713 | 361 ft | 6 kts | 297° |
| 2026-04-29 12:46 | 45.74181 | 16.07659 | 361 ft | 7 kts | 265° |
| 2026-04-29 12:46 | 45.74148 | 16.07602 | 359 ft | 8 kts | 227° |
| 2026-04-29 12:46 | 45.74105 | 16.07536 | 362 ft | 10 kts | 225° |
| 2026-04-29 12:46 | 45.74058 | 16.07453 | 359 ft | 11 kts | 239° |
| 2026-04-29 12:47 | 45.74050 | 16.07417 | 361 ft | 1 kts | 270° |
| 2026-04-29 12:47 | 45.74064 | 16.07397 | 361 ft | 6 kts | 326° |
| 2026-04-29 12:47 | 45.74107 | 16.07353 | 361 ft | 9 kts | 320° |
| 2026-04-29 12:47 | 45.74156 | 16.07286 | 362 ft | 10 kts | 319° |
| 2026-04-29 12:48 | 45.74211 | 16.07209 | 359 ft | 11 kts | 304° |
| 2026-04-29 12:48 | 45.74194 | 16.07123 | 361 ft | 10 kts | 214° |
| 2026-04-29 12:48 | 45.74141 | 16.07040 | 359 ft | 12 kts | 227° |
| 2026-04-29 12:48 | 45.74077 | 16.06944 | 360 ft | 14 kts | 226° |
| 2026-04-29 12:49 | 45.74004 | 16.06836 | 363 ft | 16 kts | 226° |
| 2026-04-29 12:49 | 45.73926 | 16.06714 | 365 ft | 17 kts | 227° |
| 2026-04-29 12:49 | 45.73839 | 16.06581 | 359 ft | 19 kts | 226° |
| 2026-04-29 12:49 | 45.73743 | 16.06437 | 358 ft | 21 kts | 227° |
| 2026-04-29 12:50 | 45.73640 | 16.06281 | 366 ft | 22 kts | 226° |
| 2026-04-29 12:50 | 45.73530 | 16.06113 | 358 ft | 24 kts | 227° |
| 2026-04-29 12:50 | 45.73416 | 16.05937 | 361 ft | 25 kts | 227° |
| 2026-04-29 12:50 | 45.73305 | 16.05770 | 358 ft | 21 kts | 226° |
| 2026-04-29 12:51 | 45.73273 | 16.05709 | 358 ft | 1 kts | 246° |
| 2026-04-29 12:51 | 45.73280 | 16.05683 | 363 ft | 5 kts | 314° |
| 2026-04-29 12:51 | 45.73332 | 16.05640 | 360 ft | 12 kts | 318° |
| 2026-04-29 12:51 | 45.73396 | 16.05553 | 361 ft | 11 kts | 329° |
| 2026-04-29 12:52 | 45.73428 | 16.05562 | 361 ft | 3 kts | 39° |
| 2026-04-29 12:52 | 45.73438 | 16.05577 | 361 ft | 0 kts | 45° |
| 2026-04-29 12:52 | 45.73566 | 16.05772 | 363 ft | 62 kts | 46° |
| 2026-04-29 12:52 | 45.74008 | 16.06447 | 361 ft | 121 kts | 46° |
| 2026-04-29 12:53 | 45.74691 | 16.07497 | 420 ft | 159 kts | 47° |
| 2026-04-29 12:53 | 45.75472 | 16.08650 | 917 ft | 166 kts | 46° |
| 2026-04-29 12:53 | 45.76304 | 16.09875 | 1515 ft | 178 kts | 45° |
| 2026-04-29 12:53 | 45.77208 | 16.11167 | 2062 ft | 189 kts | 43° |
| 2026-04-29 12:54 | 45.78204 | 16.12502 | 2576 ft | 204 kts | 41° |
| 2026-04-29 12:54 | 45.79329 | 16.13916 | 2947 ft | 227 kts | 41° |
| 2026-04-29 12:54 | 45.80545 | 16.15484 | 3387 ft | 249 kts | 45° |
| 2026-04-29 12:54 | 45.81817 | 16.17226 | 4196 ft | 256 kts | 33° |
| 2026-04-29 12:55 | 45.83492 | 16.18074 | 5080 ft | 261 kts | 4° |
| 2026-04-29 12:55 | 45.85284 | 16.17662 | 5901 ft | 265 kts | 335° |
| 2026-04-29 12:55 | 45.86770 | 16.16117 | 6884 ft | 267 kts | 317° |
| 2026-04-29 12:55 | 45.88097 | 16.14179 | 7365 ft | 277 kts | 313° |
| 2026-04-29 12:56 | 45.89394 | 16.12187 | 7698 ft | 275 kts | 314° |
| 2026-04-29 12:56 | 45.90756 | 16.10177 | 8484 ft | 276 kts | 316° |
| 2026-04-29 12:56 | 45.92103 | 16.08278 | 9433 ft | 276 kts | 317° |
| 2026-04-29 12:56 | 45.93504 | 16.06364 | 10219 ft | 281 kts | 317° |
| 2026-04-29 12:57 | 45.94981 | 16.04380 | 10615 ft | 300 kts | 317° |
| 2026-04-29 12:57 | 45.96560 | 16.02268 | 10844 ft | 322 kts | 316° |
| 2026-04-29 12:57 | 45.98231 | 16.00025 | 11408 ft | 331 kts | 315° |
| 2026-04-29 12:57 | 45.99905 | 15.97754 | 12229 ft | 332 kts | 314° |
| 2026-04-29 12:58 | 46.01491 | 15.95338 | 13015 ft | 332 kts | 306° |
| 2026-04-29 12:58 | 46.02836 | 15.92635 | 13840 ft | 332 kts | 301° |
| 2026-04-29 12:58 | 46.04132 | 15.89879 | 14572 ft | 334 kts | 300° |
| 2026-04-29 12:58 | 46.05445 | 15.87097 | 15232 ft | 337 kts | 301° |
| 2026-04-29 12:59 | 46.06773 | 15.84297 | 15910 ft | 339 kts | 301° |
| 2026-04-29 12:59 | 46.08116 | 15.81475 | 16585 ft | 343 kts | 301° |
| 2026-04-29 12:59 | 46.09472 | 15.78628 | 17224 ft | 345 kts | 301° |
| 2026-04-29 12:59 | 46.10841 | 15.75765 | 17907 ft | 347 kts | 301° |
| 2026-04-29 13:00 | 46.12213 | 15.72892 | 18569 ft | 349 kts | 301° |
| 2026-04-29 13:00 | 46.13593 | 15.69997 | 19130 ft | 351 kts | 301° |
| 2026-04-29 13:00 | 46.14958 | 15.67130 | 19693 ft | 353 kts | 301° |
| 2026-04-29 13:00 | 46.16397 | 15.64250 | 20255 ft | 356 kts | 306° |
| 2026-04-29 13:01 | 46.18079 | 15.61599 | 20817 ft | 360 kts | 312° |
| 2026-04-29 13:01 | 46.19993 | 15.59228 | 21369 ft | 365 kts | 317° |
| 2026-04-29 13:01 | 46.21977 | 15.56926 | 21927 ft | 367 kts | 316° |
| 2026-04-29 13:01 | 46.23966 | 15.54594 | 22470 ft | 369 kts | 316° |
| 2026-04-29 13:02 | 46.25956 | 15.52251 | 23010 ft | 371 kts | 316° |
| 2026-04-29 13:02 | 46.27968 | 15.49870 | 23596 ft | 373 kts | 316° |
| 2026-04-29 13:02 | 46.29977 | 15.47479 | 24134 ft | 376 kts | 316° |
| 2026-04-29 13:02 | 46.32007 | 15.45070 | 24642 ft | 377 kts | 316° |
| 2026-04-29 13:03 | 46.34016 | 15.42694 | 25134 ft | 378 kts | 316° |
| 2026-04-29 13:03 | 46.36056 | 15.40289 | 25625 ft | 378 kts | 316° |
| 2026-04-29 13:03 | 46.38105 | 15.37867 | 25972 ft | 382 kts | 316° |
| 2026-04-29 13:03 | 46.40146 | 15.35453 | 26392 ft | 383 kts | 316° |
| 2026-04-29 13:04 | 46.42231 | 15.32983 | 26769 ft | 384 kts | 316° |
| 2026-04-29 13:04 | 46.44308 | 15.30521 | 27152 ft | 386 kts | 316° |
| 2026-04-29 13:04 | 46.46386 | 15.28057 | 27536 ft | 387 kts | 316° |
| 2026-04-29 13:04 | 46.48479 | 15.25571 | 27930 ft | 388 kts | 316° |
| 2026-04-29 13:05 | 46.50579 | 15.23072 | 28277 ft | 390 kts | 316° |
| 2026-04-29 13:05 | 46.52680 | 15.20570 | 28472 ft | 392 kts | 316° |
| 2026-04-29 13:05 | 46.54795 | 15.18049 | 28973 ft | 393 kts | 316° |
| 2026-04-29 13:05 | 46.56909 | 15.15525 | 29295 ft | 395 kts | 316° |
| 2026-04-29 13:06 | 46.59033 | 15.12987 | 29645 ft | 396 kts | 316° |
| 2026-04-29 13:06 | 46.61163 | 15.10428 | 29905 ft | 399 kts | 315° |
| 2026-04-29 13:06 | 46.63307 | 15.07836 | 30177 ft | 401 kts | 316° |
| 2026-04-29 13:06 | 46.65427 | 15.05279 | 30497 ft | 401 kts | 316° |
| 2026-04-29 13:07 | 46.67579 | 15.02689 | 30784 ft | 402 kts | 316° |
| 2026-04-29 13:07 | 46.69746 | 15.00084 | 31054 ft | 404 kts | 316° |
| 2026-04-29 13:07 | 46.71919 | 14.97471 | 31320 ft | 405 kts | 316° |
| 2026-04-29 13:07 | 46.74087 | 14.94864 | 31667 ft | 404 kts | 316° |
| 2026-04-29 13:08 | 46.76252 | 14.92259 | 32054 ft | 402 kts | 316° |
| 2026-04-29 13:08 | 46.78410 | 14.89658 | 32456 ft | 401 kts | 316° |
| 2026-04-29 13:08 | 46.80557 | 14.87068 | 32834 ft | 399 kts | 316° |
| 2026-04-29 13:08 | 46.82694 | 14.84486 | 33199 ft | 397 kts | 315° |
| 2026-04-29 13:09 | 46.84800 | 14.81939 | 33503 ft | 397 kts | 315° |
| 2026-04-29 13:09 | 46.86927 | 14.79363 | 33745 ft | 397 kts | 315° |
| 2026-04-29 13:09 | 46.89055 | 14.76781 | 34062 ft | 396 kts | 315° |
| 2026-04-29 13:09 | 46.91177 | 14.74205 | 34348 ft | 395 kts | 315° |
| 2026-04-29 13:10 | 46.93291 | 14.71636 | 34541 ft | 395 kts | 315° |
| 2026-04-29 13:10 | 46.95404 | 14.69063 | 34723 ft | 395 kts | 315° |
| 2026-04-29 13:10 | 46.97513 | 14.66475 | 34868 ft | 396 kts | 315° |
| 2026-04-29 13:10 | 46.99627 | 14.63873 | 35043 ft | 396 kts | 315° |
| 2026-04-29 13:11 | 47.01737 | 14.61283 | 35216 ft | 396 kts | 315° |
| 2026-04-29 13:11 | 47.03847 | 14.58682 | 35354 ft | 396 kts | 315° |
| 2026-04-29 13:11 | 47.05962 | 14.56073 | 35511 ft | 397 kts | 315° |
| 2026-04-29 13:11 | 47.08075 | 14.53473 | 35696 ft | 397 kts | 315° |
| 2026-04-29 13:12 | 47.10170 | 14.50882 | 35794 ft | 400 kts | 314° |
| 2026-04-29 13:12 | 47.12286 | 14.48218 | 35925 ft | 401 kts | 313° |
| 2026-04-29 13:12 | 47.14374 | 14.45500 | 36064 ft | 401 kts | 312° |
| 2026-04-29 13:12 | 47.16441 | 14.42754 | 36195 ft | 401 kts | 312° |
| 2026-04-29 13:13 | 47.18522 | 14.40011 | 36335 ft | 402 kts | 313° |
| 2026-04-29 13:13 | 47.20616 | 14.37285 | 36469 ft | 402 kts | 313° |
| 2026-04-29 13:13 | 47.22720 | 14.34569 | 36597 ft | 402 kts | 313° |
| 2026-04-29 13:13 | 47.24826 | 14.31860 | 36720 ft | 403 kts | 314° |
| 2026-04-29 13:14 | 47.26938 | 14.29142 | 36849 ft | 403 kts | 314° |
| 2026-04-29 13:14 | 47.29049 | 14.26421 | 36964 ft | 403 kts | 314° |
| 2026-04-29 13:14 | 47.31162 | 14.23694 | 37102 ft | 403 kts | 314° |
| 2026-04-29 13:15 | 47.35385 | 14.18228 | 37178 ft | 405 kts | 314° |
| 2026-04-29 13:15 | 47.39620 | 14.12730 | 37175 ft | 405 kts | 314° |
| 2026-04-29 13:16 | 47.52665 | 13.95568 | 37161 ft | 405 kts | 315° |
| 2026-04-29 13:16 | 47.69582 | 13.73378 | 37211 ft | 406 kts | 315° |
| 2026-04-29 13:17 | 47.78821 | 13.61124 | 37193 ft | 406 kts | 315° |
| 2026-04-29 13:17 | 47.87266 | 13.49838 | 37194 ft | 408 kts | 315° |
| 2026-04-29 13:18 | 47.95761 | 13.38455 | 37214 ft | 411 kts | 315° |
| 2026-04-29 13:18 | 48.04247 | 13.27032 | 37198 ft | 409 kts | 315° |
| 2026-04-29 13:19 | 48.12707 | 13.15583 | 37207 ft | 410 kts | 315° |
| 2026-04-29 13:19 | 48.21110 | 13.04157 | 37210 ft | 410 kts | 315° |
| 2026-04-29 13:20 | 48.29898 | 12.93253 | 37198 ft | 411 kts | 320° |
| 2026-04-29 13:20 | 48.38897 | 12.82598 | 37200 ft | 412 kts | 319° |
| 2026-04-29 13:21 | 48.47865 | 12.71816 | 37206 ft | 412 kts | 319° |
| 2026-04-29 13:21 | 48.56842 | 12.60966 | 37215 ft | 414 kts | 318° |
| 2026-04-29 13:22 | 48.65799 | 12.49998 | 37217 ft | 415 kts | 319° |
| 2026-04-29 13:22 | 48.74822 | 12.39025 | 37222 ft | 416 kts | 319° |
| 2026-04-29 13:23 | 48.83803 | 12.28040 | 37224 ft | 417 kts | 319° |
| 2026-04-29 13:23 | 48.87898 | 12.21830 | 37245 ft | 416 kts | 308° |
| 2026-04-29 13:23 | 48.91108 | 12.14493 | 37222 ft | 417 kts | 297° |
| 2026-04-29 13:24 | 48.96378 | 11.98737 | 37239 ft | 418 kts | 297° |
| 2026-04-29 13:24 | 49.01635 | 11.82879 | 37248 ft | 420 kts | 297° |
| 2026-04-29 13:25 | 49.06847 | 11.67020 | 37262 ft | 421 kts | 297° |
| 2026-04-29 13:25 | 49.14694 | 11.42959 | 37249 ft | 422 kts | 297° |
| 2026-04-29 13:26 | 49.19903 | 11.26887 | 37268 ft | 423 kts | 297° |
| 2026-04-29 13:26 | 49.24681 | 11.10237 | 37257 ft | 428 kts | 294° |
| 2026-04-29 13:27 | 49.29264 | 10.93406 | 37261 ft | 428 kts | 294° |
| 2026-04-29 13:27 | 49.31457 | 10.85264 | 37871 ft | 410 kts | 298° |
| 2026-04-29 13:27 | 49.33258 | 10.79741 | 38988 ft | 382 kts | 310° |
| 2026-04-29 13:28 | 49.34688 | 10.76285 | 38651 ft | 387 kts | 313° |
| 2026-04-29 13:28 | 49.36252 | 10.72835 | 37976 ft | 400 kts | 315° |
| 2026-04-29 13:28 | 49.37949 | 10.69404 | 37495 ft | 408 kts | 317° |
| 2026-04-29 13:28 | 49.39705 | 10.65939 | 37233 ft | 411 kts | 314° |
| 2026-04-29 13:29 | 49.41264 | 10.62258 | 37460 ft | 405 kts | 302° |
| 2026-04-29 13:29 | 49.42653 | 10.58584 | 38044 ft | 395 kts | 300° |
| 2026-04-29 13:29 | 49.44042 | 10.54902 | 37858 ft | 403 kts | 301° |
| 2026-04-29 13:29 | 49.45558 | 10.51195 | 37464 ft | 415 kts | 303° |
| 2026-04-29 13:30 | 49.47170 | 10.47522 | 37264 ft | 422 kts | 304° |
| 2026-04-29 13:30 | 49.48862 | 10.43809 | 37268 ft | 425 kts | 304° |
| 2026-04-29 13:30 | 49.54859 | 10.30617 | 37227 ft | 432 kts | 304° |
| 2026-04-29 13:31 | 49.68823 | 10.00455 | 37204 ft | 432 kts | 302° |
| 2026-04-29 13:31 | 49.71936 | 9.82525 | 37272 ft | 444 kts | 274° |
| 2026-04-29 13:31 | 49.72484 | 9.63411 | 37269 ft | 445 kts | 274° |
| 2026-04-29 13:32 | 49.73418 | 9.25559 | 37267 ft | 445 kts | 276° |
| 2026-04-29 13:32 | 49.77189 | 9.07648 | 37244 ft | 437 kts | 296° |
| 2026-04-29 13:32 | 49.82183 | 8.90436 | 37234 ft | 438 kts | 296° |
| 2026-04-29 13:33 | 49.91280 | 8.58692 | 37237 ft | 430 kts | 296° |
| 2026-04-29 13:33 | 49.96050 | 8.41882 | 37291 ft | 443 kts | 296° |
| 2026-04-29 13:34 | 50.00989 | 8.24339 | 37295 ft | 443 kts | 295° |
| 2026-04-29 13:34 | 50.05799 | 8.06783 | 37280 ft | 443 kts | 295° |
| 2026-04-29 13:35 | 50.10708 | 7.89207 | 37250 ft | 441 kts | 295° |
| 2026-04-29 13:35 | 50.15584 | 7.71629 | 37258 ft | 445 kts | 295° |
| 2026-04-29 13:36 | 50.20487 | 7.53769 | 37254 ft | 448 kts | 295° |
| 2026-04-29 13:36 | 50.25347 | 7.35943 | 37236 ft | 448 kts | 295° |
| 2026-04-29 13:37 | 50.30208 | 7.17939 | 37264 ft | 449 kts | 295° |
| 2026-04-29 13:37 | 50.35045 | 6.99870 | 37264 ft | 450 kts | 295° |
| 2026-04-29 13:38 | 50.39865 | 6.81723 | 37261 ft | 451 kts | 295° |
| 2026-04-29 13:38 | 50.44618 | 6.63672 | 37244 ft | 449 kts | 295° |
| 2026-04-29 13:39 | 50.49382 | 6.45434 | 37237 ft | 455 kts | 295° |
| 2026-04-29 13:39 | 50.53250 | 6.30502 | 37244 ft | 454 kts | 294° |
| 2026-04-29 13:40 | 50.55603 | 6.21299 | 37240 ft | 453 kts | 294° |
| 2026-04-29 13:40 | 50.57964 | 6.12078 | 37233 ft | 453 kts | 295° |
| 2026-04-29 13:41 | 50.60301 | 6.02945 | 37221 ft | 453 kts | 294° |
| 2026-04-29 13:41 | 50.62652 | 5.93735 | 37227 ft | 453 kts | 294° |